Terminal Aerodrome Forecast
Issued by NWS

Home | Current Version | Previous Version | Text Only | Print | Product List | Glossary Off
Versions: 1 2 3 4 5 6 7 8 9 10 11 12 13 14 15

000
FTUS45 KGGW 200526
TAFSDY
TAF
KSDY 200526Z 2006/2106 00000KT 2SM -SN OVC018
     FM200800 VRB03KT P6SM VCSH OVC014
     FM201500 26007KT P6SM SCT025 BKN040=

USA.gov is the U.S. government's official web portal to all federal, state and local government web resources and services.